createdAt,value
2019-05-14T00:02:22.472Z,1.40
2019-05-14T00:04:51.191Z,1.27
2019-05-14T00:07:19.220Z,1.10
2019-05-14T00:09:47.056Z,1.20
2019-05-14T00:12:14.832Z,1.17
2019-05-14T00:14:43.808Z,1.40
2019-05-14T00:17:11.883Z,1.20
2019-05-14T00:19:41.680Z,1.47
2019-05-14T00:22:11.319Z,1.30
2019-05-14T00:24:41.291Z,1.40
2019-05-14T00:27:11.221Z,1.20
2019-05-14T00:29:38.526Z,1.00
2019-05-14T00:32:06.308Z,1.07
2019-05-14T00:34:34.085Z,1.10
2019-05-14T00:37:01.887Z,1.10
2019-05-14T00:39:31.836Z,1.20
2019-05-14T00:42:01.638Z,1.13
2019-05-14T00:44:29.095Z,1.10
2019-05-14T00:46:56.887Z,1.13
2019-05-14T00:49:24.710Z,1.37
2019-05-14T00:51:52.521Z,1.10
2019-05-14T00:54:21.536Z,1.10
2019-05-14T00:56:49.403Z,1.30
2019-05-14T00:59:17.208Z,1.20
2019-05-14T01:01:45.014Z,1.30
2019-05-14T01:04:12.824Z,1.10
2019-05-14T01:06:42.088Z,1.20
2019-05-14T01:09:11.412Z,1.30
2019-05-14T01:11:41.569Z,1.13
2019-05-14T01:14:09.052Z,1.20
2019-05-14T01:16:36.839Z,1.10
2019-05-14T01:19:04.620Z,1.30
2019-05-14T01:21:32.420Z,1.57
2019-05-14T01:24:02.069Z,1.30
2019-05-14T01:26:31.096Z,1.30
2019-05-14T01:29:01.247Z,1.17
2019-05-14T01:31:31.273Z,1.10
2019-05-14T01:33:58.309Z,1.20
2019-05-14T01:36:26.188Z,1.10
2019-05-14T01:38:53.980Z,1.37
2019-05-14T01:41:22.379Z,1.40
2019-05-14T01:43:51.268Z,1.23
2019-05-14T01:46:21.051Z,1.30
2019-05-14T01:48:49.000Z,1.50
2019-05-14T01:51:16.803Z,1.80
2019-05-14T01:53:44.599Z,1.70
2019-05-14T01:56:12.431Z,1.70
2019-05-14T01:58:41.662Z,1.83
2019-05-14T02:01:11.861Z,1.93
2019-05-14T02:03:41.099Z,1.60
2019-05-14T02:06:09.233Z,1.83
2019-05-14T02:08:37.035Z,1.73
2019-05-14T02:11:04.866Z,1.60
2019-05-14T02:13:32.634Z,1.50
2019-05-14T02:16:01.421Z,1.90
2019-05-14T02:18:31.125Z,1.60
2019-05-14T02:21:01.353Z,1.60
2019-05-14T02:23:28.793Z,1.57
2019-05-14T02:25:56.573Z,2.23
2019-05-14T02:28:24.404Z,2.10
2019-05-14T02:30:58.085Z,1.93
2019-05-14T02:33:21.886Z,1.50
2019-05-14T02:35:49.689Z,1.93
2019-05-14T02:38:19.499Z,1.83
2019-05-14T02:40:49.467Z,1.80
2019-05-14T02:43:19.870Z,1.70
2019-05-14T02:46:04.548Z,1.50
2019-05-14T02:48:16.328Z,1.60
2019-05-14T02:50:44.097Z,1.80
2019-05-14T02:53:11.912Z,1.40
2019-05-14T02:55:39.706Z,1.67
2019-05-14T02:58:09.929Z,2.37
2019-05-14T03:00:40.466Z,1.60
2019-05-14T03:03:09.668Z,1.60
2019-05-14T03:05:39.891Z,1.53
2019-05-14T03:08:08.999Z,1.40
2019-05-14T03:10:36.350Z,1.83
2019-05-14T03:13:04.177Z,1.60
2019-05-14T03:15:31.942Z,1.90
2019-05-14T03:18:00.199Z,2.03
2019-05-14T03:20:28.804Z,1.60
2019-05-14T03:23:05.217Z,1.90
2019-05-14T03:25:29.750Z,1.80
2019-05-14T03:27:59.613Z,1.50
2019-05-14T03:30:31.643Z,1.97
2019-05-14T03:33:01.943Z,1.60
2019-05-14T03:35:39.442Z,1.87
2019-05-14T03:37:55.631Z,1.60
2019-05-14T03:40:23.435Z,2.07
2019-05-14T03:42:51.241Z,1.70
2019-05-14T03:45:19.629Z,1.80
2019-05-14T03:47:50.412Z,1.70
2019-05-14T03:50:19.168Z,1.77
2019-05-14T03:52:49.546Z,1.83
2019-05-14T03:55:19.931Z,1.97
2019-05-14T03:57:49.773Z,1.90
2019-05-14T04:00:20.025Z,1.67
2019-05-14T04:02:49.065Z,1.77
2019-05-14T04:05:19.744Z,2.10
2019-05-14T04:07:50.218Z,1.87
2019-05-14T04:10:19.474Z,1.97
2019-05-14T04:12:49.376Z,1.70
2019-05-14T04:15:19.329Z,1.90
2019-05-14T04:17:50.118Z,2.03
2019-05-14T04:20:19.701Z,2.20
2019-05-14T04:22:51.299Z,2.00
2019-05-14T04:25:19.589Z,2.00
2019-05-14T04:27:52.581Z,2.17
2019-05-14T04:30:23.942Z,1.80
2019-05-14T04:32:52.447Z,2.10
2019-05-14T04:35:20.651Z,2.00
2019-05-14T04:37:49.543Z,1.87
2019-05-14T04:40:18.967Z,2.00
2019-05-14T04:42:50.030Z,1.83
2019-05-14T04:45:19.673Z,1.83
2019-05-14T04:47:49.542Z,2.10
2019-05-14T04:50:16.168Z,2.20
2019-05-14T04:52:44.276Z,2.10
2019-05-14T04:55:12.090Z,2.10
2019-05-14T04:57:39.926Z,2.10
2019-05-14T05:00:11.687Z,1.97
2019-05-14T05:02:39.729Z,1.90
2019-05-14T05:05:09.429Z,1.90
2019-05-14T05:07:39.424Z,2.27
2019-05-14T05:10:10.159Z,2.40
2019-05-14T05:12:38.753Z,2.40
2019-05-14T05:15:09.390Z,2.77
2019-05-14T05:17:46.621Z,2.63
2019-05-14T05:20:09.593Z,2.43
2019-05-14T05:22:36.193Z,2.13
2019-05-14T05:25:04.394Z,2.40
2019-05-14T05:27:32.178Z,2.30
2019-05-14T05:29:59.987Z,2.37
2019-05-14T05:32:28.541Z,2.37
2019-05-14T05:34:58.652Z,2.37
2019-05-14T05:37:26.286Z,2.87
2019-05-14T05:39:54.051Z,2.50
2019-05-14T05:42:21.985Z,3.00
2019-05-14T05:44:49.787Z,2.77
2019-05-14T05:47:18.287Z,1.87
2019-05-14T05:49:48.568Z,2.27
2019-05-14T05:52:15.959Z,1.97
2019-05-14T05:54:43.819Z,1.83
2019-05-14T05:57:11.619Z,2.17
2019-05-14T05:59:39.576Z,2.23
2019-05-14T06:02:09.305Z,2.10
2019-05-14T06:04:39.364Z,1.90
2019-05-14T06:07:08.839Z,1.73
2019-05-14T06:09:38.188Z,1.73
2019-05-14T06:12:08.721Z,1.63
2019-05-14T06:14:38.225Z,1.80
2019-05-14T06:17:08.319Z,1.77
2019-05-14T06:19:38.166Z,1.70
2019-05-14T06:22:06.380Z,1.80
2019-05-14T06:24:34.135Z,1.70
2019-05-14T06:27:01.999Z,2.20
2019-05-14T06:29:29.885Z,1.90
2019-05-14T06:31:58.881Z,1.73
2019-05-14T06:34:28.996Z,2.03
2019-05-14T06:36:58.942Z,2.10
2019-05-14T06:39:28.267Z,2.00
2019-05-14T06:41:58.338Z,2.33
2019-05-14T06:44:29.236Z,1.70
2019-05-14T06:46:56.320Z,1.53
2019-05-14T06:49:24.141Z,1.90
2019-05-14T06:51:52.031Z,1.67
2019-05-14T06:54:19.909Z,1.73
2019-05-14T06:56:48.831Z,1.70
2019-05-14T06:59:18.199Z,2.00
2019-05-14T07:01:46.177Z,2.10
2019-05-14T07:04:13.970Z,1.90
2019-05-14T07:06:41.794Z,2.00
2019-05-14T07:09:09.657Z,1.77
2019-05-14T07:11:38.907Z,1.50
2019-05-14T07:14:11.254Z,1.63
2019-05-14T07:16:38.997Z,1.50
2019-05-14T07:19:06.617Z,2.00
2019-05-14T07:21:34.468Z,1.83
2019-05-14T07:24:02.275Z,2.00
2019-05-14T07:26:30.131Z,1.73
2019-05-14T07:28:59.119Z,1.60
2019-05-14T07:31:29.057Z,1.80
2019-05-14T07:33:58.219Z,1.90
2019-05-14T07:36:29.299Z,1.30
2019-05-14T07:39:00.026Z,1.80
2019-05-14T07:41:28.446Z,1.50
2019-05-14T07:43:58.609Z,2.20
2019-05-14T07:46:28.361Z,1.77
2019-05-14T07:49:07.220Z,1.90
2019-05-14T07:51:28.183Z,1.83
2019-05-14T07:53:57.850Z,1.70
2019-05-14T07:56:25.533Z,1.90
2019-05-14T07:58:53.333Z,1.60
2019-05-14T08:01:21.090Z,1.73
2019-05-14T08:03:49.186Z,1.53
2019-05-14T08:06:18.892Z,1.30
2019-05-14T08:08:49.367Z,1.10
2019-05-14T08:11:18.927Z,1.50
2019-05-14T08:13:46.306Z,1.30
2019-05-14T08:16:14.122Z,1.60
2019-05-14T08:18:41.964Z,1.50
2019-05-14T08:21:09.901Z,1.30
2019-05-14T08:23:39.279Z,1.37
2019-05-14T08:26:07.965Z,1.20
2019-05-14T08:28:38.034Z,1.60
2019-05-14T08:31:05.608Z,1.30
2019-05-14T08:33:33.479Z,1.27
2019-05-14T08:36:03.002Z,1.20
2019-05-14T08:38:30.806Z,1.30
2019-05-14T08:40:59.041Z,1.57
2019-05-14T08:43:29.243Z,1.20
2019-05-14T08:45:58.556Z,1.10
2019-05-14T08:48:26.414Z,1.37
2019-05-14T08:50:54.233Z,1.40
2019-05-14T08:53:22.064Z,1.40
2019-05-14T08:55:49.966Z,1.70
2019-05-14T08:58:20.143Z,1.40
2019-05-14T09:00:48.263Z,1.17
2019-05-14T09:03:16.278Z,1.20
2019-05-14T09:05:44.134Z,0.97
2019-05-14T09:08:11.924Z,1.03
2019-05-14T09:10:40.412Z,1.10
2019-05-14T09:13:08.611Z,1.20
2019-05-14T09:15:38.468Z,1.10
2019-05-14T09:18:06.339Z,1.07
2019-05-14T09:20:34.131Z,1.20
2019-05-14T09:23:01.930Z,1.27
2019-05-14T09:25:29.791Z,1.40
2019-05-14T09:27:58.594Z,1.47
2019-05-14T09:30:28.915Z,1.17
2019-05-14T09:32:59.163Z,1.12
2019-05-14T09:35:26.148Z,1.00
2019-05-14T09:37:53.980Z,1.52
2019-05-14T09:40:21.820Z,1.50
2019-05-14T09:42:50.162Z,1.10
2019-05-14T09:45:18.913Z,1.57
2019-05-14T09:47:50.302Z,1.60
2019-05-14T09:50:22.827Z,1.43
2019-05-14T09:52:49.441Z,1.47
2019-05-14T09:55:18.155Z,1.10
2019-05-14T09:57:46.041Z,1.25
2019-05-14T10:00:14.737Z,1.30
2019-05-14T10:02:42.645Z,1.10
2019-05-14T10:05:10.620Z,1.00
2019-05-14T10:07:39.145Z,1.10
2019-05-14T10:10:08.184Z,1.22
2019-05-14T10:12:47.822Z,3.40
2019-05-14T10:15:08.830Z,1.20
2019-05-14T10:17:39.252Z,1.30
2019-05-14T10:20:08.789Z,1.20
2019-05-14T10:22:36.517Z,1.43
2019-05-14T10:25:05.075Z,1.30
2019-05-14T10:27:32.899Z,1.67
2019-05-14T10:30:00.643Z,1.63
2019-05-14T10:32:29.470Z,1.63
2019-05-14T10:34:59.023Z,1.10
2019-05-14T10:37:28.759Z,1.43
2019-05-14T10:39:58.634Z,1.30
2019-05-14T10:42:28.964Z,1.70
2019-05-14T10:44:58.534Z,1.60
2019-05-14T10:47:25.875Z,1.40
2019-05-14T10:49:53.691Z,1.20
2019-05-14T10:52:21.563Z,1.20
2019-05-14T10:54:55.959Z,1.20
2019-05-14T10:57:19.114Z,1.17
2019-05-14T10:59:46.897Z,1.03
2019-05-14T11:02:14.718Z,1.20
2019-05-14T11:04:42.514Z,1.20
2019-05-14T11:07:10.300Z,1.20
2019-05-14T11:09:38.288Z,1.10
2019-05-14T11:12:06.109Z,1.17
2019-05-14T11:14:33.925Z,1.20
2019-05-14T11:17:01.749Z,1.33
2019-05-14T11:19:30.589Z,1.00
2019-05-14T11:21:58.411Z,1.20
2019-05-14T11:24:26.305Z,1.20
2019-05-14T11:26:54.088Z,1.07
2019-05-14T11:29:21.868Z,1.20
2019-05-14T11:31:49.809Z,1.20
2019-05-14T11:34:19.290Z,1.40
2019-05-14T11:36:49.479Z,1.10
2019-05-14T11:39:18.131Z,1.30
2019-05-14T11:41:46.062Z,1.17
2019-05-14T11:44:13.832Z,1.55
2019-05-14T11:46:51.022Z,1.40
2019-05-14T11:49:11.391Z,1.30
2019-05-14T11:51:59.533Z,1.40
2019-05-14T11:54:09.556Z,1.53
2019-05-14T11:56:41.769Z,1.57
2019-05-14T11:59:08.590Z,1.50
2019-05-14T12:01:39.055Z,1.47
2019-05-14T12:04:08.810Z,1.40
2019-05-14T12:06:38.778Z,1.50
2019-05-14T12:09:11.394Z,1.70
2019-05-14T12:11:38.347Z,1.40
2019-05-14T12:14:08.939Z,1.20
2019-05-14T12:16:36.302Z,1.43
2019-05-14T12:19:04.147Z,1.30
2019-05-14T12:21:31.939Z,1.37
2019-05-14T12:24:04.664Z,1.10
2019-05-14T12:26:29.468Z,1.10
2019-05-14T12:28:59.474Z,1.30
2019-05-14T12:31:28.961Z,1.10
2019-05-14T12:33:58.361Z,1.42
2019-05-14T12:36:29.051Z,1.02
2019-05-14T12:38:58.962Z,1.17
2019-05-14T12:41:25.810Z,1.02
2019-05-14T12:43:53.611Z,1.42
2019-05-14T12:46:21.488Z,1.25
2019-05-14T12:48:49.670Z,1.35
2019-05-14T12:51:18.573Z,1.60
2019-05-14T12:53:48.832Z,1.30
2019-05-14T12:56:18.842Z,1.50
2019-05-14T12:58:46.151Z,1.33
2019-05-14T13:01:15.674Z,1.20
2019-05-14T13:03:43.496Z,1.13
2019-05-14T13:06:11.348Z,1.23
2019-05-14T13:08:39.312Z,1.20
2019-05-14T13:11:09.684Z,1.40
2019-05-14T13:13:42.425Z,1.37
2019-05-14T13:16:09.180Z,1.40
2019-05-14T13:18:38.783Z,1.50
2019-05-14T13:21:06.757Z,1.77
2019-05-14T13:23:34.564Z,1.40
2019-05-14T13:26:02.455Z,1.40
2019-05-14T13:28:30.348Z,1.40
2019-05-14T13:30:59.663Z,1.33
2019-05-14T13:33:28.446Z,1.77
2019-05-14T13:35:59.165Z,1.37
2019-05-14T13:38:26.059Z,1.70
2019-05-14T13:40:53.828Z,1.37
2019-05-14T13:43:21.674Z,1.30
2019-05-14T13:45:49.616Z,1.27
2019-05-14T13:48:18.864Z,1.40
2019-05-14T13:50:49.105Z,1.10
2019-05-14T13:53:18.863Z,1.20
2019-05-14T13:55:50.612Z,1.40
2019-05-14T13:58:16.000Z,1.50
2019-05-14T14:00:43.801Z,1.30
2019-05-14T14:03:11.587Z,1.50
2019-05-14T14:05:39.541Z,1.70
2019-05-14T14:08:08.759Z,1.63
2019-05-14T14:10:44.060Z,1.57
2019-05-14T14:13:10.640Z,1.30
2019-05-14T14:15:38.406Z,1.40
2019-05-14T14:18:05.976Z,1.37
2019-05-14T14:20:33.770Z,1.43
2019-05-14T14:23:17.487Z,1.20
2019-05-14T14:25:31.282Z,1.40
2019-05-14T14:28:00.389Z,1.17
2019-05-14T14:30:28.602Z,1.33
2019-05-14T14:32:58.695Z,1.20
2019-05-14T14:35:30.159Z,1.30
2019-05-14T14:37:59.130Z,1.20
2019-05-14T14:40:29.935Z,1.30
2019-05-14T14:42:59.353Z,1.27
2019-05-14T14:45:29.277Z,1.50
2019-05-14T14:47:56.011Z,1.37
2019-05-14T14:50:23.873Z,1.30
2019-05-14T14:52:51.699Z,1.40
2019-05-14T14:55:19.657Z,1.73
2019-05-14T14:57:53.593Z,1.30
2019-05-14T15:00:19.350Z,1.40
2019-05-14T15:02:49.564Z,1.50
2019-05-14T15:05:19.708Z,1.20
2019-05-14T15:07:49.654Z,1.07
2019-05-14T15:10:19.146Z,0.90
2019-05-14T15:12:49.444Z,1.37
2019-05-14T15:15:18.465Z,1.90
2019-05-14T15:17:48.349Z,1.07
2019-05-14T15:20:19.279Z,1.30
2019-05-14T15:22:48.687Z,1.10
2019-05-14T15:25:18.372Z,1.07
2019-05-14T15:27:45.488Z,0.90
2019-05-14T15:30:13.671Z,1.00
2019-05-14T15:32:41.501Z,1.03
2019-05-14T15:35:11.013Z,1.00
2019-05-14T15:37:42.620Z,1.40
2019-05-14T15:40:09.570Z,1.20
2019-05-14T15:42:39.437Z,1.20
2019-05-14T15:45:09.153Z,1.30
2019-05-14T15:47:38.903Z,1.20
2019-05-14T15:50:09.199Z,1.30
2019-05-14T15:52:39.474Z,0.93
2019-05-14T15:55:08.623Z,1.00
2019-05-14T15:57:39.361Z,1.00
2019-05-14T16:00:08.622Z,1.43
2019-05-14T16:02:39.183Z,1.03
2019-05-14T16:05:06.311Z,1.13
2019-05-14T16:07:34.127Z,1.13
2019-05-14T16:10:01.933Z,1.10
2019-05-14T16:12:32.313Z,1.30
2019-05-14T16:14:59.474Z,1.40
2019-05-14T16:17:30.191Z,1.50
2019-05-14T16:19:56.989Z,1.43
2019-05-14T16:22:24.826Z,1.00
2019-05-14T16:24:56.825Z,1.10
2019-05-14T16:27:22.366Z,1.30
2019-05-14T16:29:50.180Z,0.93
2019-05-14T16:32:18.030Z,1.03
2019-05-14T16:34:45.848Z,1.23
2019-05-14T16:37:13.740Z,0.90
2019-05-14T16:39:41.598Z,1.23
2019-05-14T16:42:09.417Z,1.10
2019-05-14T16:44:39.106Z,1.23
2019-05-14T16:47:09.705Z,1.10
2019-05-14T16:49:36.729Z,0.90
2019-05-14T16:52:04.593Z,1.10
2019-05-14T16:54:32.380Z,0.90
2019-05-14T16:57:00.191Z,1.17
2019-05-14T16:59:29.472Z,0.90
2019-05-14T17:01:58.464Z,1.10
2019-05-14T17:04:26.433Z,0.90
2019-05-14T17:06:54.240Z,1.27
2019-05-14T17:09:22.056Z,1.30
2019-05-14T17:11:49.850Z,1.00
2019-05-14T17:14:18.381Z,0.90
2019-05-14T17:16:48.355Z,1.03
2019-05-14T17:19:18.630Z,1.10
2019-05-14T17:21:48.541Z,1.40
2019-05-14T17:24:15.505Z,1.30
2019-05-14T17:26:43.302Z,1.10
2019-05-14T17:29:11.108Z,1.00
2019-05-14T17:31:39.263Z,1.10
2019-05-14T17:34:08.708Z,1.40
2019-05-14T17:36:38.943Z,1.30
2019-05-14T17:39:08.646Z,1.37
2019-05-14T17:41:41.675Z,1.40
2019-05-14T17:44:06.306Z,1.20
2019-05-14T17:46:34.085Z,1.20
2019-05-14T17:49:03.305Z,1.30
2019-05-14T17:51:31.135Z,0.90
2019-05-14T17:53:58.969Z,1.10
2019-05-14T17:56:28.422Z,0.90
2019-05-14T17:58:57.971Z,1.00
2019-05-14T18:01:26.016Z,0.90
2019-05-14T18:03:53.794Z,1.17
2019-05-14T18:06:21.602Z,1.30
2019-05-14T18:08:49.506Z,0.90
2019-05-14T18:11:19.125Z,1.00
2019-05-14T18:13:48.525Z,1.10
2019-05-14T18:16:18.939Z,1.10
2019-05-14T18:18:49.141Z,1.40
2019-05-14T18:21:16.048Z,1.07
2019-05-14T18:23:43.919Z,0.80
2019-05-14T18:26:11.999Z,0.90
2019-05-14T18:28:39.849Z,1.40
2019-05-14T18:31:09.425Z,1.00
2019-05-14T18:33:39.829Z,0.90
2019-05-14T18:36:07.380Z,1.30
2019-05-14T18:38:35.226Z,1.10
2019-05-14T18:41:03.023Z,1.20
2019-05-14T18:43:30.893Z,1.20
2019-05-14T18:45:58.859Z,1.30
2019-05-14T18:48:28.928Z,1.37
2019-05-14T18:50:59.060Z,1.20
2019-05-14T18:53:28.135Z,1.23
2019-05-14T18:55:56.043Z,1.17
2019-05-14T18:58:26.062Z,1.30
2019-05-14T19:00:53.628Z,1.30
2019-05-14T19:03:21.435Z,1.23
2019-05-14T19:05:49.270Z,1.13
2019-05-14T19:08:17.929Z,1.40
2019-05-14T19:10:45.818Z,1.00
2019-05-14T19:13:13.645Z,1.50
2019-05-14T19:15:41.507Z,1.00
2019-05-14T19:18:09.319Z,1.10
2019-05-14T19:20:39.047Z,3.97
2019-05-14T19:23:08.101Z,2.00
2019-05-14T19:25:36.020Z,1.30
2019-05-14T19:28:03.870Z,1.50
2019-05-14T19:30:31.684Z,2.00
2019-05-14T19:32:59.535Z,1.40
2019-05-14T19:35:28.698Z,1.17
2019-05-14T19:37:59.274Z,1.10
2019-05-14T19:40:28.200Z,1.10
2019-05-14T19:42:56.188Z,1.03
2019-05-14T19:45:24.009Z,1.50
2019-05-14T19:47:51.861Z,0.90
2019-05-14T19:50:19.773Z,1.20
2019-05-14T19:52:48.721Z,1.23
2019-05-14T19:55:18.852Z,1.40
2019-05-14T19:57:48.794Z,1.37
2019-05-14T20:00:24.183Z,1.20
2019-05-14T20:02:52.027Z,1.20
2019-05-14T20:05:19.870Z,1.20
2019-05-14T20:07:49.068Z,1.10
2019-05-14T20:10:17.001Z,1.00
2019-05-14T20:12:44.872Z,1.27
2019-05-14T20:15:13.189Z,1.20
2019-05-14T20:17:40.997Z,1.20
2019-05-14T20:20:09.769Z,1.30
2019-05-14T20:22:39.175Z,1.40
2019-05-14T20:25:08.088Z,1.23
2019-05-14T20:27:39.062Z,1.17
2019-05-14T20:30:08.747Z,1.20
2019-05-14T20:32:36.724Z,1.10
2019-05-14T20:35:05.764Z,1.03
2019-05-14T20:37:33.654Z,1.10
2019-05-14T20:40:01.490Z,0.90
2019-05-14T20:42:29.376Z,1.10
2019-05-14T20:44:57.190Z,1.47
2019-05-14T20:47:25.017Z,0.97
2019-05-14T20:49:52.856Z,1.17
2019-05-14T20:52:20.733Z,1.20
2019-05-14T20:54:49.354Z,1.00
2019-05-14T20:57:24.403Z,1.20
2019-05-14T20:59:48.222Z,1.30
2019-05-14T21:02:18.602Z,1.50
2019-05-14T21:04:53.253Z,1.20
2019-05-14T21:07:15.741Z,1.00
2019-05-14T21:09:43.573Z,1.37
2019-05-14T21:12:11.467Z,1.30
2019-05-14T21:14:41.496Z,1.13
2019-05-14T21:17:09.043Z,1.20
2019-05-14T21:19:37.998Z,1.40
2019-05-14T21:22:08.223Z,1.00
2019-05-14T21:24:38.914Z,1.20
2019-05-14T21:27:05.522Z,1.10
2019-05-14T21:29:33.355Z,1.30
2019-05-14T21:32:01.644Z,1.23
2019-05-14T21:34:29.635Z,1.00
2019-05-14T21:36:58.522Z,1.00
2019-05-14T21:39:26.462Z,1.40
2019-05-14T21:41:54.312Z,1.00
2019-05-14T21:44:22.151Z,0.90
2019-05-14T21:46:49.971Z,1.00
2019-05-14T21:49:19.073Z,1.23
2019-05-14T21:51:48.268Z,1.20
2019-05-14T21:54:18.853Z,1.40
2019-05-14T21:56:49.360Z,1.20
2019-05-14T21:59:18.341Z,1.17
2019-05-14T22:01:48.447Z,1.03
2019-05-14T22:04:18.648Z,1.20
2019-05-14T22:06:45.996Z,1.03
2019-05-14T22:09:13.792Z,1.13
2019-05-14T22:11:41.614Z,1.10
2019-05-14T22:14:09.643Z,1.40
2019-05-14T22:16:38.131Z,1.30
2019-05-14T22:19:08.525Z,1.63
2019-05-14T22:21:38.590Z,1.40
2019-05-14T22:24:06.182Z,1.40
2019-05-14T22:26:34.072Z,1.40
2019-05-14T22:29:02.146Z,1.30
2019-05-14T22:31:30.006Z,1.10
2019-05-14T22:33:58.339Z,1.43
2019-05-14T22:36:29.076Z,1.43
2019-05-14T22:38:57.895Z,1.50
2019-05-14T22:41:25.897Z,1.50
2019-05-14T22:43:56.793Z,1.20
2019-05-14T22:46:23.781Z,1.50
2019-05-14T22:48:51.837Z,1.47
2019-05-14T22:51:20.989Z,1.23
2019-05-14T22:53:49.435Z,1.33
2019-05-14T22:56:17.503Z,1.67
2019-05-14T22:58:45.319Z,1.40
2019-05-14T23:01:15.015Z,1.47
2019-05-14T23:03:43.233Z,1.90
2019-05-14T23:06:11.074Z,1.57
2019-05-14T23:08:39.295Z,1.70
2019-05-14T23:11:08.685Z,1.60
2019-05-14T23:13:38.968Z,1.70
2019-05-14T23:16:08.223Z,1.53
2019-05-14T23:18:37.999Z,1.80
2019-05-14T23:21:08.596Z,1.70
2019-05-14T23:23:35.878Z,2.00
2019-05-14T23:26:03.978Z,1.83
2019-05-14T23:28:41.862Z,2.07
2019-05-14T23:31:01.689Z,1.50
2019-05-14T23:33:29.885Z,1.70
2019-05-14T23:35:58.092Z,1.73
2019-05-14T23:38:28.818Z,1.50
2019-05-14T23:40:58.748Z,1.57
2019-05-14T23:43:28.721Z,1.73
2019-05-14T23:45:58.377Z,1.80
2019-05-14T23:48:26.436Z,2.13
2019-05-14T23:50:54.529Z,1.90
2019-05-14T23:53:22.339Z,2.10
2019-05-14T23:55:50.322Z,2.10
2019-05-14T23:58:20.557Z,1.80
